Aviation Digital Data Service (ADDS)

Output produced by METARs form (2049 UTC 24 June 2017)
found at http://www.aviationweather.gov/adds/metars/
 
OEAB 242000Z 15007KT CAVOK 20/15 Q1023 NOSIG
TAF OEAB 241100Z 2412/2506 21006G16KT 9999 FEW020 
     TEMPO 2412/2418 7000 TSRA SCT020 FEW025CB 
     BECMG 2422/2424 VRB03KT
       
OEAH 242000Z 29006KT CAVOK 29/M01 Q1002 NOSIG
TAF OEAH 241100Z 2412/2506 36014G24KT 6000 SKC 
     TEMPO 2412/2418 3500 DU BLDU 
     PROB30 
     TEMPO 2412/2416 1500 BLSA
       
OEBA 242000Z 25008KT 9999 FEW030 26/13 Q1017 NOSIG
TAF OEBA 241100Z 2412/2506 24006G16KT 8000 FEW030 
     TEMPO 2412/2418 5000 TSRA FEW025CB SCT030 
     BECMG 2422/2424 VRB03KT
       
OESK 242000Z 35004KT CAVOK 33/00 Q1009 NOSIG
TAF OESK 232300Z 2400/2506 VRB03KT 7000 SKC 
     BECMG 2406/2408 33006G16KT
       
OERR 242000Z 04006KT CAVOK 31/10 Q1008 NOSIG
TAF OERR 241100Z 2412/2508 33013KT CAVOK 
     BECMG 2418/2420 02006KT
       
OEBH 242000Z 17004KT CAVOK 30/11 Q1012 NOSIG
TAF OEBH 241100Z 2412/2506 24006G16KT 7000 FEW030 
     TEMPO 2412/2418 4000 DU BLDU SCT030 
     BECMG 2500/2502 18006KT
       
OEGS 242000Z 06010KT CAVOK 35/10 Q1008
TAF OEGS 241100Z 2412/2506 09012KT 8000 SKC 
     TEMPO 2412/2418 4000 DU
       
OEGT 242000Z 29012KT CAVOK 29/07 Q1009 NOSIG
TAF OEGT 241100Z 2412/2506 30008G18KT CAVOK
       
OEHL 242000Z 07006KT CAVOK 32/05 Q1012
TAF OEHL 241100Z 2412/2506 08012KT CAVOK 
     TEMPO 2412/2418 6000 SKC
       
OEGN 242000Z 13010KT CAVOK 33/20 Q1004 NOSIG
TAF OEGN 241100Z 2412/2506 25006G16KT 7000 FEW030 
     TEMPO 2412/2420 SCT030 FEW035CB 
     PROB30 
     TEMPO 2412/2416 3500 BLDU TSRA 
     BECMG 2422/2424 VRB03KT
       
OEDR 242000Z 28006KT CAVOK 28/06 Q0998 NOSIG
TAF OEDR 242030Z 2500/2606 32010KT CAVOK 
     BECMG 2504/2506 36018KT 
     BECMG 2520/2522 30010KT
       
OEJN 242000Z 30008KT CAVOK 31/21 Q1005 NOSIG
TAF OEJN 241700Z 2418/2524 04006KT 7000 NSC 
     BECMG 2506/2508 28014KT
       
OEDF 242000Z 30007KT CAVOK 30/06 Q1000 NOSIG
TAF OEDF 241400Z 2418/2524 28008KT 8000 SKC 
     BECMG 2504/2506 35015KT
       
OEKM 241900Z 21006KT CAVOK 22/12 Q1022 NOSIG
TAF OEKM 241100Z 2412/2506 21006G16KT 9999 FEW020 
     TEMPO 2412/2418 7000 TSRA SCT020 FEW025CB 
     BECMG 2422/2424 VRB03KT
       
OERK 242000Z 01007KT CAVOK 33/00 Q1008 NOSIG
TAF OERK 241700Z 2418/2524 04006KT 8000 SKC 
     TEMPO 2418/2506 4000 DU 
     BECMG 2500/2502 VRB03KT 
     BECMG 2506/2508 02006G16KT
       
OEKK 242000Z 02008KT CAVOK 34/08 Q1007 NOSIG
OENG 242000Z 00000KT 6000 SKC 31/01 Q1013 NOSIG
TAF OENG 241100Z 2412/2506 06010KT 8000 FEW030 
     TEMPO 2412/2420 5000 DU 
     BECMG 2422/2424 VRB03KT
       
OEMA 242000Z 26006KT CAVOK 37/03 Q1009 NOSIG
TAF OEMA 241700Z 2418/2524 20006KT 7000 SKC 
     BECMG 2506/2508 26014KT
       
OEPA 242000Z 36005KT CAVOK 33/06 Q1006 NOSIG
TAF OEPA 241100Z 2412/2506 36008G18KT 7000 SKC 
     TEMPO 2412/2418 4000 DU BLDU 
     PROB30 
     TEMPO 2412/2416 2000
       
OERF 242000Z 35003KT CAVOK 32/M01 Q1007
TAF OERF 241100Z 2412/2506 33014KT CAVOK 
     TEMPO 2412/2418 6000 
     BECMG 2418/2420 02006KT
       
TAF OERY 241100Z 2412/2506 01006G16KT 7000 SKC 
     TEMPO 2412/2418 4000 DU BLDU
       
OESH 242000Z 05004KT 8000 SKC 34/07 Q1008 NOSIG
TAF OESH 241100Z 2412/2506 03006G16KT 8000 SKC 
     TEMPO 2412/2418 4000 DU BLDU 
     BECMG 2500/2502 22006KT
       
OETB 242000Z 01006KT CAVOK 31/00 Q1010 NOSIG
TAF OETB 241100Z 2412/2506 02012KT CAVOK 
     BECMG 2420/2422 32008KT
       
OETF 242000Z 27005KT CAVOK 27/04 Q1016 NOSIG
TAF OETF 241700Z 2418/2512 27006G16KT 9999 FEW030
       
OETR 242000Z 28008KT CAVOK 26/03 Q1012
TAF OETR 241100Z 2412/2506 31013KT CAVOK 
     BECMG 2418/2420 02008KT
       
OEWD 242000Z 12006KT 7000 SKC 33/13 Q1015 NOSIG
TAF OEWD 241100Z 2412/2506 06012KT 8000 SKC 
     TEMPO 2412/2420 4000 DU 
     BECMG 2420/2422 19006KT
       
OEWJ 242000Z 00000KT CAVOK 27/25 Q1005 NOSIG
TAF OEWJ 241100Z 2412/2506 30008G18KT CAVOK 
     BECMG 2420/2422 VRB03KT 7000 SKC 
     TEMPO 2500/2504 4000 BR
       
OEYN 242000Z 27006KT CAVOK 29/18 Q1003 NOSIG
TAF OEYN 241100Z 2412/2506 27010G20KT 7000 SKC 
     TEMPO 2412/2416 3500 DU BLDU 
     BECMG 2420/2422 VRB03KT